Time;durP1;ratioP1;P1;durP2;ratioP2;P2;SDS_P1;SDS_P2;PMS_P1;PMS_P2;Temp;Humidity;BMP_temperature;BMP_pressure;BME280_temperature;BME280_humidity;BME280_pressure;Samples;Min_cycle;Max_cycle;Signal;HPM_P1;HPM_P2
2022/06/23 00:02:25;;;;;;;22.43;14.17;;;20.80;99.90;;;21.46;nan;100216.69;4958547;28;20666;-64
2022/06/23 00:04:58;;;;;;;24.70;16.23;;;20.80;99.90;;;21.43;nan;100216.22;4952760;29;20984;-66
2022/06/23 00:07:33;;;;;;;26.00;16.40;;;20.70;99.90;;;21.42;nan;100217.25;4970922;28;20639;-66
2022/06/23 00:10:13;;;;;;;28.53;18.80;;;20.70;99.90;;;21.37;nan;100227.63;4971653;28;20645;-63
2022/06/23 00:12:43;;;;;;;31.90;16.80;;;20.70;99.90;;;21.35;nan;100227.81;4973805;28;20657;-64
2022/06/23 00:15:09;;;;;;;29.93;18.90;;;20.70;99.90;;;21.34;nan;100228.81;4971151;28;20630;-66
2022/06/23 00:18:03;;;;;;;30.00;18.27;;;20.60;99.90;;;21.33;nan;100221.03;4960357;28;20657;-66
2022/06/23 00:21:09;;;;;;;24.77;16.80;;;20.60;99.90;;;21.29;nan;100227.75;4948024;29;21053;-67
2022/06/23 00:23:41;;;;;;;27.40;16.80;;;20.60;99.90;;;21.30;nan;100226.72;4954420;28;20664;-64
2022/06/23 00:26:28;;;;;;;29.47;17.10;;;20.60;99.90;;;21.27;nan;100230.59;4955013;29;20635;-64
2022/06/23 00:29:08;;;;;;;29.83;18.13;;;20.50;99.90;;;21.28;nan;100228.75;4952812;28;20647;-67
2022/06/23 00:31:43;;;;;;;30.10;18.70;;;20.50;99.90;;;21.26;nan;100220.97;4952642;29;21207;-66
2022/06/23 00:34:42;;;;;;;24.97;16.67;;;20.60;99.90;;;21.29;nan;100215.31;4979180;28;20639;-65
2022/06/23 00:37:19;;;;;;;30.67;18.27;;;20.60;99.90;;;21.30;nan;100221.41;4972569;28;20627;-67
2022/06/23 00:39:53;;;;;;;24.83;16.70;;;20.60;99.90;;;21.30;nan;100224.06;4971563;28;20677;-66
2022/06/23 00:42:37;;;;;;;25.37;16.80;;;20.60;99.90;;;21.29;nan;100219.78;4963455;28;20670;-66
2022/06/23 00:45:10;;;;;;;26.70;15.90;;;20.60;99.90;;;21.26;nan;100213.00;4971639;28;20646;-66
2022/06/23 00:47:57;;;;;;;27.20;18.27;;;20.50;99.90;;;21.26;nan;100205.06;4972209;28;20630;-67
2022/06/23 00:50:49;;;;;;;34.30;21.40;;;20.50;99.90;;;21.19;nan;100192.75;4970598;28;20635;-65
2022/06/23 00:53:42;;;;;;;27.03;16.60;;;20.50;99.90;;;21.08;nan;100199.38;4971151;28;20697;-66
2022/06/23 00:56:15;;;;;;;30.93;19.80;;;20.40;99.90;;;21.10;nan;100200.00;4956317;28;20640;-66
2022/06/23 00:59:05;;;;;;;29.50;19.33;;;20.40;99.90;;;21.11;nan;100201.63;4960238;28;20788;-67
2022/06/23 01:01:41;;;;;;;26.30;16.23;;;20.40;99.90;;;21.09;nan;100201.00;4971725;28;20659;-66
2022/06/23 01:04:31;;;;;;;28.83;17.93;;;20.40;99.90;;;21.10;nan;100215.91;4972124;28;20619;-66
2022/06/23 01:07:27;;;;;;;33.30;17.10;;;20.40;99.90;;;21.13;nan;100207.56;4961448;28;20639;-66
2022/06/23 01:10:35;;;;;;;26.37;17.17;;;20.40;99.90;;;21.17;nan;100208.03;4953280;28;20627;-66
2022/06/23 01:13:06;;;;;;;25.53;16.60;;;20.40;99.90;;;21.18;nan;100213.16;4953746;28;20656;-67
2022/06/23 01:15:49;;;;;;;28.30;16.97;;;20.50;99.90;;;21.19;nan;100209.47;4960979;28;20646;-66
2022/06/23 01:18:49;;;;;;;29.57;18.07;;;20.50;99.90;;;21.20;nan;100204.97;4973624;28;20615;-66
2022/06/23 01:21:25;;;;;;;29.47;17.47;;;20.40;99.90;;;21.18;nan;100205.19;4962142;28;21036;-67
2022/06/23 01:24:09;;;;;;;34.93;20.80;;;20.50;99.90;;;21.19;nan;100206.81;4951697;29;20623;-66
2022/06/23 01:26:54;;;;;;;35.50;21.73;;;20.50;99.90;;;21.17;nan;100200.88;4948538;28;20643;-64
2022/06/23 01:29:43;;;;;;;39.53;21.07;;;20.50;99.90;;;21.10;nan;100200.00;4962401;28;20658;-66
2022/06/23 01:32:43;;;;;;;35.20;21.60;;;20.40;99.90;;;21.07;nan;100204.84;4958095;28;20790;-67
2022/06/23 01:35:53;;;;;;;31.10;20.20;;;20.30;99.90;;;21.05;nan;100205.03;4936965;28;20637;-67
2022/06/23 01:38:50;;;;;;;25.63;17.10;;;20.30;99.90;;;21.03;nan;100204.41;4950073;28;21234;-64
2022/06/23 01:41:48;;;;;;;30.47;16.70;;;20.30;99.90;;;21.05;nan;100212.16;4931696;29;20680;-66
2022/06/23 01:44:33;;;;;;;24.83;16.33;;;20.30;99.90;;;20.99;nan;100216.38;4958482;28;20642;-64
2022/06/23 01:47:02;;;;;;;23.07;14.60;;;20.30;99.90;;;21.00;nan;100215.34;4959124;28;20643;-63
2022/06/23 01:49:41;;;;;;;24.47;15.50;;;20.30;99.90;;;20.97;nan;100228.16;4951042;28;20640;-66
2022/06/23 01:52:17;;;;;;;23.33;14.30;;;20.30;99.90;;;20.95;nan;100231.03;4952085;29;20663;-66
2022/06/23 01:54:50;;;;;;;20.97;13.40;;;20.20;99.90;;;20.94;nan;100237.31;4952832;28;20641;-66
2022/06/23 01:57:36;;;;;;;24.20;14.80;;;20.20;99.90;;;20.85;nan;100230.47;4969993;28;20620;-63
2022/06/23 02:00:18;;;;;;;22.73;15.47;;;20.20;99.90;;;20.84;nan;100231.50;4968183;28;20674;-67
2022/06/23 02:03:15;;;;;;;31.97;15.70;;;20.10;99.90;;;20.73;nan;100234.63;4951712;29;20664;-65
2022/06/23 02:05:53;;;;;;;25.10;15.10;;;20.00;99.90;;;20.61;nan;100238.75;4954016;28;20655;-65
2022/06/23 02:08:51;;;;;;;28.60;16.50;;;19.90;99.90;;;20.53;nan;100238.84;4951448;29;20996;-66
2022/06/23 02:11:42;;;;;;;26.07;15.77;;;19.80;99.90;;;20.47;nan;100239.56;4956652;28;20664;-66
2022/06/23 02:14:58;;;;;;;26.40;14.80;;;19.80;99.90;;;20.42;nan;100234.00;4948780;29;20632;-64
2022/06/23 02:17:39;;;;;;;28.37;17.33;;;19.70;99.90;;;20.44;nan;100251.38;4968011;28;20646;-66
2022/06/23 02:20:32;;;;;;;27.13;15.07;;;19.70;99.90;;;20.40;nan;100252.72;4956172;28;20683;-66
2022/06/23 02:23:13;;;;;;;28.47;17.77;;;19.70;99.90;;;20.36;nan;100248.78;4959926;28;20658;-66
2022/06/23 02:25:52;;;;;;;30.00;17.57;;;19.70;99.90;;;20.33;nan;100257.13;4970700;28;20631;-66
2022/06/23 02:28:40;;;;;;;32.63;18.77;;;19.70;99.90;;;20.32;nan;100260.75;4970572;28;20844;-66
2022/06/23 02:31:38;;;;;;;26.53;15.90;;;19.70;99.90;;;20.37;nan;100255.75;4970004;28;20627;-66
2022/06/23 02:34:47;;;;;;;25.60;16.97;;;19.70;99.90;;;20.43;nan;100256.84;4965427;28;20747;-64
2022/06/23 02:38:09;;;;;;;37.17;18.40;;;19.70;99.90;;;20.42;nan;100253.34;4943677;28;20648;-64
2022/06/23 02:40:56;;;;;;;30.23;17.40;;;19.80;99.90;;;20.41;nan;100245.59;4953525;28;20671;-64
2022/06/23 02:43:43;;;;;;;26.93;17.10;;;19.70;99.90;;;20.43;nan;100248.88;4969717;28;20651;-64
2022/06/23 02:47:01;;;;;;;28.30;17.40;;;19.80;99.90;;;20.45;nan;100247.69;4968479;28;20650;-64
2022/06/23 02:50:27;;;;;;;31.47;17.60;;;19.80;99.90;;;20.47;nan;100260.75;4956451;28;20645;-65
2022/06/23 02:53:03;;;;;;;25.77;16.30;;;19.80;99.90;;;20.50;nan;100263.06;4960740;28;20672;-64
2022/06/23 02:56:11;;;;;;;30.60;17.17;;;19.80;99.90;;;20.49;nan;100264.06;4960042;28;20639;-66
2022/06/23 02:59:01;;;;;;;31.00;16.87;;;19.80;99.90;;;20.53;nan;100265.34;4951316;28;20647;-66
2022/06/23 03:02:02;;;;;;;28.57;16.60;;;19.80;99.90;;;20.54;nan;100264.34;4971936;28;21104;-66
2022/06/23 03:04:43;;;;;;;28.23;17.00;;;19.90;99.90;;;20.61;nan;100259.94;4969044;28;21200;-66
2022/06/23 03:08:01;;;;;;;29.27;17.30;;;19.90;99.90;;;20.57;nan;100262.13;4938547;29;20622;-63
2022/06/23 03:10:42;;;;;;;26.83;16.27;;;20.00;99.90;;;20.60;nan;100268.91;4968254;28;20640;-64
2022/06/23 03:13:31;;;;;;;29.27;17.17;;;19.90;99.90;;;20.57;nan;100270.09;4972811;28;20650;-64
2022/06/23 03:16:35;;;;;;;26.20;16.33;;;19.90;99.90;;;20.58;nan;100265.59;4973528;28;20654;-66
2022/06/23 03:19:17;;;;;;;28.17;15.80;;;19.90;99.90;;;20.57;nan;100272.72;4966991;28;20639;-66
2022/06/23 03:21:50;;;;;;;26.00;16.37;;;19.90;99.90;;;20.58;nan;100263.78;4974063;28;20673;-64
2022/06/23 03:24:23;;;;;;;29.73;15.53;;;19.90;99.90;;;20.61;nan;100271.38;4970059;28;20632;-63
2022/06/23 03:27:03;;;;;;;28.50;17.70;;;19.90;99.90;;;20.62;nan;100278.31;4961988;28;20635;-66
2022/06/23 03:29:45;;;;;;;29.03;16.70;;;19.90;99.90;;;20.62;nan;100282.78;4963268;28;20639;-64
2022/06/23 03:32:26;;;;;;;26.53;15.50;;;19.90;99.90;;;20.64;nan;100284.25;4953210;29;20636;-63
2022/06/23 03:35:45;;;;;;;27.83;16.90;;;20.00;99.90;;;20.68;nan;100279.41;4954240;28;20640;-63
2022/06/23 03:41:44;;;;;;;30.87;16.87;;;20.00;99.90;;;20.76;nan;100277.47;4935059;29;20669;-64
2022/06/23 03:44:30;;;;;;;25.60;16.63;;;20.10;99.90;;;20.77;nan;100270.34;4934141;28;21173;-63
2022/06/23 03:48:04;;;;;;;24.30;15.60;;;20.10;99.90;;;20.78;nan;100287.91;4970602;28;20639;-65
2022/06/23 03:51:03;;;;;;;25.17;15.77;;;20.10;99.90;;;20.73;nan;100285.81;4935536;28;20647;-65
2022/06/23 03:53:56;;;;;;;25.37;16.27;;;20.10;99.90;;;20.76;nan;100292.59;4949151;29;20629;-65
2022/06/23 03:56:29;;;;;;;27.30;15.77;;;20.10;99.90;;;20.63;nan;100287.09;4956888;28;20639;-64
2022/06/23 03:59:14;;;;;;;26.77;16.67;;;20.00;99.90;;;20.64;nan;100286.91;4954737;28;20686;-65
2022/06/23 04:01:57;;;;;;;42.80;19.70;;;20.00;99.90;;;20.67;nan;100289.22;4958829;28;20674;-65
2022/06/23 04:04:56;;;;;;;34.40;19.43;;;20.00;99.90;;;20.64;nan;100286.91;4965413;28;20648;-65
2022/06/23 04:07:29;;;;;;;30.97;17.10;;;20.00;99.90;;;20.76;nan;100288.09;4952791;29;20643;-64
2022/06/23 04:10:28;;;;;;;24.87;15.97;;;20.10;99.90;;;20.87;nan;100292.09;4955656;28;21188;-64
2022/06/23 04:13:21;;;;;;;28.43;16.97;;;20.20;99.90;;;20.96;nan;100296.28;4953365;28;20651;-65
2022/06/23 04:15:49;;;;;;;37.80;17.17;;;20.30;99.90;;;21.09;nan;100308.94;4965995;28;20636;-65
2022/06/23 04:18:28;;;;;;;23.83;15.43;;;20.40;99.90;;;21.21;nan;100302.97;4968340;28;20628;-65
2022/06/23 04:21:12;;;;;;;23.57;15.57;;;20.60;99.90;;;21.15;nan;100295.75;4979137;28;20667;-65
2022/06/23 04:23:50;;;;;;;24.53;14.40;;;20.50;99.90;;;21.19;nan;100301.53;4987944;28;20627;-64
2022/06/23 04:26:28;;;;;;;23.87;13.70;;;20.50;99.90;;;21.18;nan;100298.03;4962260;28;20624;-65
2022/06/23 04:29:14;;;;;;;21.80;14.53;;;20.60;99.90;;;21.14;nan;100302.06;4936807;29;21154;-65
2022/06/23 04:31:50;;;;;;;26.30;14.17;;;20.50;99.90;;;21.12;nan;100306.75;4967918;28;20663;-65
2022/06/23 04:34:29;;;;;;;24.90;14.73;;;20.50;99.90;;;21.05;nan;100303.19;4971275;28;20691;-65
2022/06/23 04:36:57;;;;;;;26.03;15.80;;;20.40;99.90;;;21.06;nan;100312.78;4965708;28;20654;-66
2022/06/23 04:39:41;;;;;;;20.80;14.10;;;20.40;99.90;;;21.07;nan;100316.25;4981244;28;20631;-64
2022/06/23 04:42:13;;;;;;;24.77;13.77;;;20.40;99.90;;;21.12;nan;100305.91;4969447;28;21593;-65
2022/06/23 04:44:48;;;;;;;22.30;14.30;;;20.40;99.90;;;21.12;nan;100304.09;4972902;28;20995;-65
2022/06/23 04:47:27;;;;;;;26.27;16.37;;;20.50;99.90;;;21.21;nan;100312.78;4962163;28;21221;-65
2022/06/23 04:50:12;;;;;;;26.07;17.10;;;20.60;99.90;;;21.27;nan;100317.31;4951681;29;21004;-65
2022/06/23 04:52:51;;;;;;;24.30;15.40;;;20.70;99.90;;;21.36;nan;100321.53;4974819;23;20700;-67
2022/06/23 04:55:27;;;;;;;23.57;14.37;;;20.80;99.90;;;21.39;nan;100316.66;4953119;29;21179;-68
2022/06/23 04:58:11;;;;;;;30.30;16.10;;;20.80;99.90;;;21.51;nan;100307.19;4952496;29;20624;-67
2022/06/23 05:00:48;;;;;;;22.20;14.53;;;20.90;99.90;;;21.64;nan;100304.66;4952026;29;21033;-67
2022/06/23 05:03:37;;;;;;;24.77;16.17;;;21.00;99.90;;;21.75;nan;100313.13;4950969;28;21219;-65
2022/06/23 05:06:33;;;;;;;25.40;15.07;;;21.10;99.90;;;21.84;nan;100314.69;4932426;29;20620;-66
2022/06/23 05:09:10;;;;;;;22.27;13.97;;;21.30;99.90;;;21.86;nan;100320.63;4935074;29;20632;-66
2022/06/23 05:11:47;;;;;;;28.23;16.90;;;21.20;99.90;;;21.84;nan;100314.69;4960736;28;20640;-68
2022/06/23 05:14:45;;;;;;;24.57;15.07;;;21.20;99.90;;;21.84;nan;100312.84;4967117;28;20628;-68
2022/06/23 05:17:33;;;;;;;35.10;16.43;;;21.20;99.90;;;21.86;nan;100318.81;4948961;29;20637;-66
2022/06/23 05:20:04;;;;;;;36.63;18.40;;;21.20;99.90;;;21.88;nan;100322.09;4951012;29;20625;-69
2022/06/23 05:22:38;;;;;;;30.87;17.57;;;21.30;99.90;;;21.98;nan;100319.91;4960027;28;20656;-69
2022/06/23 05:25:36;;;;;;;32.40;17.17;;;21.40;99.90;;;22.12;nan;100321.69;4954506;28;20654;-66
2022/06/23 05:28:08;;;;;;;32.53;18.07;;;21.50;99.90;;;22.30;nan;100321.19;4975735;28;20645;-67
2022/06/23 05:30:47;;;;;;;29.93;17.20;;;21.70;99.90;;;22.55;nan;100321.59;4973387;28;20640;-67
2022/06/23 05:33:23;;;;;;;30.83;17.50;;;21.90;99.90;;;22.69;nan;100329.47;4954132;29;20648;-67
2022/06/23 05:36:22;;;;;;;31.93;16.77;;;22.10;99.90;;;22.88;nan;100326.13;4969475;28;20636;-68
2022/06/23 05:39:03;;;;;;;35.87;20.17;;;22.30;99.90;;;23.10;nan;100321.50;4954793;28;20628;-67
2022/06/23 05:41:41;;;;;;;29.03;15.60;;;22.50;99.90;;;23.23;nan;100328.72;4949501;29;20668;-67
2022/06/23 05:44:20;;;;;;;35.07;17.37;;;22.70;99.90;;;23.20;nan;100326.44;4933979;29;20628;-67
2022/06/23 05:46:48;;;;;;;27.27;15.67;;;22.70;99.90;;;23.11;nan;100326.63;4951878;29;20636;-67
2022/06/23 05:49:41;;;;;;;24.70;14.17;;;22.50;99.90;;;22.77;nan;100326.66;4953690;29;20635;-66
2022/06/23 05:52:16;;;;;;;30.13;14.67;;;22.20;99.90;;;22.58;nan;100329.16;4952092;28;20682;-66
2022/06/23 05:54:59;;;;;;;26.87;15.10;;;21.90;99.90;;;22.39;nan;100326.19;4953563;29;20650;-65
2022/06/23 05:57:43;;;;;;;26.87;13.80;;;21.70;99.90;;;22.32;nan;100329.78;4936753;29;20625;-66
2022/06/23 06:00:42;;;;;;;27.60;14.33;;;21.60;99.90;;;22.05;nan;100327.94;4936903;29;20702;-68
2022/06/23 06:03:39;;;;;;;36.93;16.87;;;21.40;99.90;;;21.84;nan;100325.31;4954098;28;20647;-67
2022/06/23 06:06:06;;;;;;;35.30;13.97;;;21.20;99.90;;;21.85;nan;100333.06;4954178;28;20632;-67
2022/06/23 06:11:39;;;;;;;26.70;12.80;;;21.30;99.90;;;21.72;nan;100329.47;4933604;28;20628;-68
2022/06/23 06:14:14;;;;;;;42.60;17.30;;;21.20;99.90;;;21.78;nan;100328.69;4968822;28;20619;-65
2022/06/23 06:16:41;;;;;;;28.43;11.87;;;21.20;99.90;;;21.74;nan;100330.09;4953050;29;20721;-67
2022/06/23 06:19:14;;;;;;;38.73;15.93;;;21.20;99.90;;;21.63;nan;100329.59;4951529;28;20620;-67
2022/06/23 06:21:41;;;;;;;32.37;14.90;;;21.10;99.90;;;21.84;nan;100333.28;4949206;29;20672;-67
2022/06/23 06:24:22;;;;;;;39.87;16.73;;;21.30;99.90;;;21.94;nan;100339.09;4950143;29;20636;-67
2022/06/23 06:26:52;;;;;;;46.43;18.50;;;21.30;99.90;;;22.12;nan;100334.97;4969417;28;21015;-67
2022/06/23 06:29:36;;;;;;;40.90;15.57;;;21.50;99.90;;;22.26;nan;100335.88;4956729;28;20632;-68
2022/06/23 06:32:33;;;;;;;30.20;15.50;;;21.70;99.90;;;22.20;nan;100344.63;4949493;28;20710;-67
2022/06/23 06:35:28;;;;;;;37.60;16.30;;;21.70;99.90;;;22.25;nan;100336.91;4966772;28;21442;-65
2022/06/23 06:38:05;;;;;;;44.80;21.10;;;21.70;99.90;;;22.37;nan;100338.84;4954459;28;20702;-66
2022/06/23 06:40:35;;;;;;;39.60;18.57;;;21.80;99.90;;;22.51;nan;100338.94;4953189;28;20630;-65
2022/06/23 06:43:08;;;;;;;42.47;16.10;;;21.90;99.90;;;22.67;nan;100342.16;4954472;28;20659;-67
2022/06/23 06:45:37;;;;;;;31.20;14.70;;;22.00;99.90;;;22.62;nan;100341.91;4955063;29;20635;-67
2022/06/23 06:48:35;;;;;;;33.60;15.07;;;22.00;99.90;;;22.64;nan;100345.19;4954646;28;21121;-68
2022/06/23 06:51:11;;;;;;;31.80;15.20;;;22.10;99.90;;;22.60;nan;100346.59;4961312;28;21176;-66
2022/06/23 06:53:43;;;;;;;32.70;15.40;;;22.00;99.90;;;22.66;nan;100343.16;4968117;28;20662;-65
2022/06/23 06:56:28;;;;;;;32.73;15.60;;;22.00;99.90;;;22.79;nan;100348.56;4956417;28;20659;-66
2022/06/23 06:59:12;;;;;;;31.13;14.50;;;22.20;99.90;;;22.87;nan;100351.06;4949429;28;20621;-67
2022/06/23 07:01:41;;;;;;;35.63;15.40;;;22.30;99.90;;;23.02;nan;100351.75;4943726;29;21020;-66
2022/06/23 07:04:23;;;;;;;31.13;14.73;;;22.40;99.90;;;22.99;nan;100349.50;4934529;29;20629;-65
2022/06/23 07:07:16;;;;;;;27.23;13.77;;;22.40;99.90;;;22.93;nan;100358.28;4946663;29;20628;-67
2022/06/23 07:10:05;;;;;;;29.37;14.63;;;22.30;99.90;;;23.02;nan;100353.63;4953007;29;20628;-65
2022/06/23 07:13:04;;;;;;;31.00;15.20;;;22.40;99.90;;;23.02;nan;100349.09;4935277;29;21282;-68
2022/06/23 07:15:40;;;;;;;29.07;14.20;;;22.40;99.90;;;23.05;nan;100346.06;4934661;28;21219;-68
2022/06/23 07:18:25;;;;;;;24.90;14.20;;;22.40;99.90;;;23.12;nan;100351.41;4956552;28;20637;-67
2022/06/23 07:21:17;;;;;;;28.00;14.07;;;22.50;99.90;;;23.23;nan;100344.69;4936103;29;20680;-68
2022/06/23 07:23:54;;;;;;;29.20;15.10;;;22.60;99.90;;;23.31;nan;100341.84;4950261;28;20677;-66
2022/06/23 07:26:45;;;;;;;24.83;12.87;;;22.80;99.90;;;23.46;nan;100335.41;4951214;28;20640;-66
2022/06/23 07:29:19;;;;;;;31.77;15.40;;;22.90;99.90;;;23.61;nan;100333.38;4954243;28;20628;-67
2022/06/23 07:32:16;;;;;;;34.57;15.87;;;23.10;99.90;;;23.51;nan;100340.91;4952357;28;20632;-67
2022/06/23 07:34:52;;;;;;;31.57;13.53;;;23.00;99.90;;;23.54;nan;100337.88;4949385;29;21008;-66
2022/06/23 07:37:25;;;;;;;31.23;15.70;;;23.00;99.90;;;23.66;nan;100343.44;4948606;28;20634;-66
2022/06/23 07:40:02;;;;;;;26.93;15.40;;;23.10;99.90;;;23.95;nan;100339.56;4971444;28;20623;-65
2022/06/23 07:42:53;;;;;;;24.57;14.37;;;23.40;99.90;;;23.87;nan;100337.94;4960918;28;21293;-66
2022/06/23 07:45:54;;;;;;;18.53;10.50;;;23.40;99.90;;;23.98;nan;100345.31;4953103;28;20636;-66
2022/06/23 07:48:23;;;;;;;30.70;15.43;;;23.50;99.90;;;24.22;nan;100342.09;4967049;28;20655;-67
2022/06/23 07:50:50;;;;;;;27.73;15.17;;;23.70;99.90;;;24.44;nan;100340.84;4962417;28;20632;-64
2022/06/23 07:53:23;;;;;;;37.80;16.70;;;23.90;99.90;;;24.58;nan;100342.47;4956554;28;20659;-65
2022/06/23 07:55:50;;;;;;;39.73;21.97;;;24.00;99.90;;;24.68;nan;100348.19;4952126;28;21183;-69
2022/06/23 07:58:28;;;;;;;36.30;16.37;;;24.10;99.90;;;24.42;nan;100342.91;4948930;29;20635;-67
2022/06/23 08:01:04;;;;;;;32.30;15.17;;;23.90;99.90;;;24.48;nan;100338.59;4948554;29;20640;-68
2022/06/23 08:03:58;;;;;;;29.27;13.60;;;24.00;99.90;;;24.58;nan;100345.13;4949431;28;20653;-69
2022/06/23 08:06:27;;;;;;;31.10;13.07;;;24.00;99.90;;;25.36;nan;100341.41;4955864;28;20643;-67
2022/06/23 08:08:59;;;;;;;27.07;15.10;;;24.80;99.90;;;27.59;nan;100342.94;4946956;28;21560;-66
2022/06/23 08:16:49;;;;;;;23.70;13.10;;;28.90;99.90;;;;;;4950655;29;20619;-68
2022/06/23 08:17:48;;;;;;;26.40;13.10;;;31.10;99.90;;;32.81;nan;100359.16;4951345;28;20682;-66
2022/06/23 08:20:20;;;;;;;23.50;13.00;;;32.40;95.80;;;33.40;nan;100351.56;4949946;28;20655;-68
2022/06/23 08:22:48;;;;;;;19.37;12.60;;;32.90;94.10;;;34.57;nan;100347.88;4983909;28;20916;-66
2022/06/23 08:25:16;;;;;;;16.47;11.93;;;34.00;92.30;;;36.97;nan;100346.56;4966648;28;20647;-67
2022/06/23 08:27:52;;;;;;;15.90;12.00;;;36.40;86.60;;;37.71;nan;100348.53;4950867;29;21026;-72
2022/06/23 08:30:20;;;;;;;16.53;11.57;;;37.00;77.60;;;37.79;nan;100345.13;4952043;29;20766;-67
2022/06/23 08:32:51;;;;;;;21.03;13.60;;;37.20;73.40;;;37.06;nan;100342.06;4952503;28;20756;-66
2022/06/23 08:35:43;;;;;;;15.37;9.90;;;36.50;73.50;;;35.76;nan;100334.06;4952674;28;20659;-67
2022/06/23 08:38:49;;;;;;;16.67;11.07;;;35.60;73.00;;;35.82;nan;100322.09;4952203;28;20689;-67
2022/06/23 08:41:34;;;;;;;14.93;10.77;;;34.90;75.10;;;38.44;nan;100324.19;4951356;29;21231;-66
2022/06/23 08:44:34;;;;;;;15.90;11.60;;;37.50;71.10;;;39.25;nan;100312.47;4950531;28;20639;-68
2022/06/23 08:47:25;;;;;;;12.13;9.23;;;38.60;66.90;;;39.04;nan;100309.31;4965561;28;20638;-65
2022/06/23 08:50:22;;;;;;;14.30;10.23;;;39.60;62.70;;;40.95;nan;100304.50;4951077;28;20636;-67
2022/06/23 08:53:06;;;;;;;19.07;10.73;;;40.30;60.60;;;41.73;nan;100308.94;4949562;29;20680;-68
2022/06/23 08:56:04;;;;;;;9.93;8.00;;;41.50;57.40;;;42.85;nan;100297.59;4951700;29;20624;-68
2022/06/23 08:58:49;;;;;;;12.23;9.03;;;42.40;55.60;;;42.39;nan;100293.75;4954332;28;20643;-68
2022/06/23 09:01:32;;;;;;;13.10;8.70;;;41.50;55.30;;;43.35;nan;100290.16;4963170;28;20679;-67
2022/06/23 09:04:17;;;;;;;16.83;9.20;;;42.50;54.00;;;45.48;nan;100294.13;4951172;29;20623;-65
2022/06/23 09:07:11;;;;;;;9.50;8.60;;;44.70;51.50;;;46.54;nan;100295.00;4951993;28;20624;-69
2022/06/23 09:10:10;;;;;;;8.90;6.93;;;45.90;49.10;;;45.06;nan;100277.16;4950335;29;20649;-66
2022/06/23 09:12:48;;;;;;;6.50;5.90;;;44.50;48.30;;;45.19;nan;100275.19;4952802;28;21251;-65
2022/06/23 09:15:18;;;;;;;7.33;6.60;;;44.20;48.90;;;45.89;nan;100279.13;4952700;28;20642;-66
2022/06/23 09:18:00;;;;;;;9.20;6.80;;;44.80;48.00;;;45.90;nan;100284.28;4966591;28;20650;-69
2022/06/23 09:20:56;;;;;;;12.73;7.90;;;44.80;47.70;;;47.03;nan;100286.28;4954912;28;20628;-66
2022/06/23 09:24:04;;;;;;;7.53;6.57;;;46.10;46.80;;;47.31;nan;100281.34;4933905;29;20637;-67
2022/06/23 09:26:53;;;;;;;9.17;7.10;;;46.30;46.10;;;48.15;nan;100276.69;4939021;28;20729;-66
2022/06/23 09:29:57;;;;;;;8.67;7.77;;;47.30;45.10;;;48.52;nan;100279.66;4976247;28;20638;-65
2022/06/23 09:32:59;;;;;;;6.53;5.90;;;47.60;44.40;;;46.21;nan;100272.50;4958243;28;20655;-67
2022/06/23 09:35:48;;;;;;;6.17;5.57;;;46.90;43.70;;;46.17;nan;100279.88;4950280;29;21204;-65
2022/06/23 09:38:35;;;;;;;6.90;6.23;;;45.60;44.90;;;46.53;nan;100263.06;4952204;28;20619;-69
2022/06/23 09:41:22;;;;;;;12.73;6.70;;;45.70;44.80;;;44.13;nan;100268.25;4947213;29;20633;-65
2022/06/23 09:44:22;;;;;;;6.90;5.87;;;43.80;46.10;;;42.47;nan;100260.03;4951333;28;20674;-67
2022/06/23 09:47:17;;;;;;;6.30;5.70;;;41.60;48.00;;;43.85;nan;100257.06;4951069;28;20636;-68
2022/06/23 09:50:02;;;;;;;7.10;6.33;;;42.60;48.10;;;43.59;nan;100253.75;4943245;29;20641;-67
2022/06/23 09:52:40;;;;;;;9.70;7.27;;;43.70;46.60;;;45.04;nan;100251.13;4970362;28;20689;-66
2022/06/23 09:55:33;;;;;;;6.13;5.63;;;43.90;46.90;;;46.10;nan;100254.88;4960225;28;20650;-67
2022/06/23 09:58:29;;;;;;;7.70;6.27;;;45.40;45.10;;;46.90;nan;100260.72;4961947;28;20653;-65
2022/06/23 10:01:42;;;;;;;5.63;5.13;;;46.10;44.90;;;44.79;nan;100239.34;4966320;28;20703;-68
2022/06/23 10:04:44;;;;;;;10.53;7.20;;;44.40;45.50;;;44.03;nan;100235.66;4939287;29;21402;-65
2022/06/23 10:07:16;;;;;;;6.83;6.00;;;43.30;46.40;;;44.13;nan;100243.50;4949585;29;20714;-65
2022/06/23 10:10:01;;;;;;;7.00;6.40;;;43.60;46.20;;;43.64;nan;100243.34;4951258;28;20631;-66
2022/06/23 10:12:53;;;;;;;7.70;6.10;;;43.30;46.50;;;43.04;nan;100232.09;4950758;29;20726;-66
2022/06/23 10:16:18;;;;;;;7.87;6.37;;;42.50;47.40;;;41.72;nan;100235.28;4952686;28;20945;-65
2022/06/23 10:19:02;;;;;;;9.50;6.40;;;41.80;48.50;;;40.69;nan;100229.75;4952733;28;20636;-65
2022/06/23 10:22:13;;;;;;;9.63;6.90;;;40.10;50.40;;;38.74;nan;100219.97;4964219;28;20642;-65
2022/06/23 10:24:59;;;;;;;10.97;6.47;;;38.30;52.00;;;38.44;nan;100215.16;4967122;28;21170;-66
2022/06/23 10:28:03;;;;;;;9.00;6.93;;;37.30;53.60;;;37.84;nan;100212.47;4966760;28;20653;-67
2022/06/23 10:31:24;;;;;;;10.23;5.97;;;36.80;54.30;;;36.12;nan;100215.16;4967948;28;21214;-67
2022/06/23 10:34:30;;;;;;;6.70;6.10;;;35.60;55.50;;;35.25;nan;100203.38;4947391;29;20695;-65
2022/06/23 10:37:32;;;;;;;7.60;6.83;;;34.20;58.10;;;34.40;nan;100201.91;4938840;28;20644;-65
2022/06/23 10:40:27;;;;;;;10.40;5.30;;;33.50;59.60;;;33.55;nan;100197.44;4970365;28;20635;-66
2022/06/23 10:43:24;;;;;;;7.20;5.07;;;32.70;60.00;;;32.65;nan;100200.75;4950715;28;21239;-66
2022/06/23 10:46:02;;;;;;;12.67;5.57;;;31.90;61.90;;;32.51;nan;100197.72;4952495;28;20995;-65
2022/06/23 10:49:07;;;;;;;6.50;5.27;;;31.60;62.70;;;32.20;nan;100185.13;4931431;29;20726;-65
2022/06/23 10:51:46;;;;;;;9.43;5.17;;;31.30;63.30;;;31.83;nan;100187.03;4967040;28;20627;-65
2022/06/23 10:54:41;;;;;;;8.90;5.47;;;31.00;64.10;;;31.75;nan;100177.56;4933007;29;20625;-64
2022/06/23 10:57:20;;;;;;;7.87;4.57;;;30.80;64.60;;;31.10;nan;100177.78;4951065;28;21144;-66
2022/06/23 11:00:09;;;;;;;10.13;5.30;;;30.40;64.70;;;31.11;nan;100179.44;4951470;28;20675;-66
2022/06/23 11:03:02;;;;;;;10.87;4.83;;;30.20;65.70;;;30.92;nan;100174.66;4949946;28;20702;-66
2022/06/23 11:06:09;;;;;;;7.60;5.80;;;30.00;66.00;;;30.78;nan;100165.28;4947741;29;20706;-68
2022/06/23 11:08:41;;;;;;;6.63;5.47;;;29.90;67.20;;;30.78;nan;100162.59;4965345;28;20698;-66
2022/06/23 11:11:35;;;;;;;6.07;4.70;;;29.90;68.00;;;30.87;nan;100172.72;4950507;28;20648;-66
2022/06/23 11:15:07;;;;;;;10.27;5.80;;;30.00;67.80;;;30.79;nan;100156.97;4951052;28;20644;-65
2022/06/23 11:17:55;;;;;;;12.20;5.77;;;29.90;68.10;;;30.91;nan;100154.16;4949929;28;20643;-65
2022/06/23 11:20:49;;;;;;;7.10;5.07;;;30.00;68.50;;;31.12;nan;100155.97;4950109;28;20644;-65
2022/06/23 11:23:34;;;;;;;13.60;5.70;;;30.20;68.30;;;31.10;nan;100158.94;4954215;28;20672;-65
2022/06/23 11:26:11;;;;;;;12.10;6.50;;;30.20;68.40;;;30.92;nan;100151.22;4952373;28;20765;-66
2022/06/23 11:29:18;;;;;;;11.63;6.33;;;30.10;68.90;;;30.94;nan;100145.56;4951905;29;20635;-65
2022/06/23 11:32:03;;;;;;;6.00;5.37;;;30.00;69.20;;;30.85;nan;100142.50;4954007;28;21023;-64
2022/06/23 11:34:39;;;;;;;10.37;5.30;;;29.90;69.60;;;30.77;nan;100144.81;4952516;28;20976;-66
2022/06/23 11:37:22;;;;;;;8.47;5.07;;;29.90;69.40;;;30.78;nan;100141.88;4953340;28;20640;-67
2022/06/23 11:40:17;;;;;;;5.67;3.80;;;29.90;69.70;;;30.76;nan;100129.72;4952594;29;20639;-67
2022/06/23 11:43:13;;;;;;;7.03;4.73;;;29.90;69.40;;;30.51;nan;100130.28;4954543;28;20683;-65
2022/06/23 11:46:28;;;;;;;7.97;5.37;;;29.80;69.50;;;30.36;nan;100120.16;4951908;29;20640;-66